Time;durP1;ratioP1;P1;durP2;ratioP2;P2;SDS_P1;SDS_P2;PMS_P1;PMS_P2;Temp;Humidity;BMP_temperature;BMP_pressure;BME280_temperature;BME280_humidity;BME280_pressure;Samples;Min_cycle;Max_cycle;Signal;HPM_P1;HPM_P2
2022/09/12 00:00:38;;;;;;;14.05;10.55;;;17.40;77.70;;;;;;5094823;28;20028;-67
2022/09/12 00:03:03;;;;;;;13.75;10.13;;;17.40;77.70;;;;;;5096269;28;20077;-68
2022/09/12 00:05:30;;;;;;;15.82;10.13;;;17.40;77.70;;;;;;5079010;28;20032;-67
2022/09/12 00:07:55;;;;;;;13.02;9.95;;;17.40;77.70;;;;;;5090781;28;20040;-67
2022/09/12 00:10:21;;;;;;;12.73;9.20;;;17.30;77.60;;;;;;5088769;28;20471;-68
2022/09/12 00:12:47;;;;;;;12.80;9.60;;;17.30;77.60;;;;;;5079829;28;20028;-67
2022/09/12 00:15:13;;;;;;;13.52;10.50;;;17.30;77.60;;;;;;5093820;28;20024;-67
2022/09/12 00:17:38;;;;;;;12.68;9.93;;;17.30;77.60;;;;;;5057555;28;20056;-68
2022/09/12 00:20:07;;;;;;;13.25;10.52;;;17.30;77.60;;;;;;5090210;28;20031;-68
2022/09/12 00:22:34;;;;;;;15.00;10.98;;;17.30;77.60;;;;;;5069907;28;20028;-68
2022/09/12 00:24:59;;;;;;;13.27;10.27;;;17.30;77.60;;;;;;5095399;28;20035;-68
2022/09/12 00:27:26;;;;;;;15.13;10.95;;;17.30;77.60;;;;;;5077636;28;20024;-67
2022/09/12 00:29:52;;;;;;;13.65;10.52;;;17.30;77.60;;;;;;5087488;28;20032;-68
2022/09/12 00:32:18;;;;;;;14.65;11.18;;;17.30;77.60;;;;;;5095224;28;20028;-68
2022/09/12 00:34:44;;;;;;;14.95;11.20;;;17.20;77.50;;;;;;5086914;28;20029;-67
2022/09/12 00:37:09;;;;;;;14.82;11.80;;;17.20;77.60;;;;;;5096058;28;20342;-67
2022/09/12 00:39:35;;;;;;;13.88;10.55;;;17.20;77.60;;;;;;5095864;28;20028;-67
2022/09/12 00:42:01;;;;;;;15.98;10.60;;;17.20;77.60;;;;;;5078081;28;20032;-67
2022/09/12 00:44:27;;;;;;;14.50;10.73;;;17.20;77.60;;;;;;5076552;28;20040;-67
2022/09/12 00:47:04;;;;;;;15.70;10.65;;;17.20;77.60;;;;;;5078603;28;20110;-68
2022/09/12 00:49:39;;;;;;;16.13;11.48;;;17.20;77.60;;;;;;5095760;28;20110;-68
2022/09/12 00:52:12;;;;;;;13.35;10.27;;;17.10;77.60;;;;;;5077555;28;20042;-67
2022/09/12 00:54:43;;;;;;;14.98;12.00;;;17.10;77.70;;;;;;5078711;28;20445;-67
2022/09/12 00:57:13;;;;;;;15.68;11.23;;;17.10;77.70;;;;;;5078557;28;20372;-67
2022/09/12 01:00:11;;;;;;;14.52;10.80;;;17.10;77.70;;;;;;5087281;28;20123;-67
2022/09/12 01:02:37;;;;;;;14.05;10.55;;;17.10;77.60;;;;;;5091109;28;20047;-67
2022/09/12 01:05:04;;;;;;;16.23;11.73;;;17.00;77.70;;;;;;5096055;28;20441;-67
2022/09/12 01:07:30;;;;;;;15.93;11.43;;;17.00;77.70;;;;;;5078448;28;20483;-67
2022/09/12 01:09:56;;;;;;;15.32;11.60;;;17.00;77.70;;;;;;5090981;28;20056;-67
2022/09/12 01:12:21;;;;;;;15.23;11.02;;;17.00;77.70;;;;;;5095579;28;20028;-67
2022/09/12 01:14:47;;;;;;;16.30;11.82;;;17.00;77.60;;;;;;5095761;28;20135;-67
2022/09/12 01:17:14;;;;;;;15.05;11.57;;;17.00;77.60;;;;;;5095579;28;20040;-67
2022/09/12 01:19:51;;;;;;;15.98;11.68;;;17.00;77.70;;;;;;5071792;28;20469;-67
2022/09/12 01:22:22;;;;;;;16.98;11.90;;;17.00;77.70;;;;;;5089031;28;20032;-67
2022/09/12 01:24:51;;;;;;;15.35;12.00;;;16.90;77.70;;;;;;5077411;28;20032;-67
2022/09/12 01:27:31;;;;;;;16.10;12.30;;;16.90;77.70;;;;;;5062410;28;20071;-67
2022/09/12 01:30:16;;;;;;;18.52;12.40;;;16.90;77.70;;;;;;5090575;28;20020;-67
2022/09/12 01:32:50;;;;;;;17.58;13.40;;;16.90;77.60;;;;;;5082453;28;20039;-67
2022/09/12 01:35:28;;;;;;;15.40;12.57;;;16.90;77.80;;;;;;5077725;28;20040;-67
2022/09/12 01:38:21;;;;;;;17.42;13.60;;;16.90;77.70;;;;;;5076811;28;20054;-67
2022/09/12 01:40:56;;;;;;;17.15;13.00;;;16.80;77.60;;;;;;5089395;28;20325;-67
2022/09/12 01:43:34;;;;;;;17.05;13.15;;;16.80;77.70;;;;;;5095526;28;20028;-67
2022/09/12 01:46:10;;;;;;;17.13;12.90;;;16.80;77.60;;;;;;5077480;28;20073;-67
2022/09/12 01:48:59;;;;;;;18.30;13.25;;;16.80;77.60;;;;;;5095669;28;20032;-68
2022/09/12 01:52:06;;;;;;;18.95;14.70;;;16.80;77.70;;;;;;5083970;28;20325;-67
2022/09/12 01:54:41;;;;;;;16.92;12.88;;;16.70;77.60;;;;;;5081632;28;20040;-67
2022/09/12 01:57:37;;;;;;;19.33;14.60;;;16.70;77.70;;;;;;5090762;28;20171;-67
2022/09/12 02:00:08;;;;;;;17.50;13.38;;;16.70;77.70;;;;;;5093113;28;20598;-67
2022/09/12 02:02:53;;;;;;;19.27;13.98;;;16.70;77.70;;;;;;5091159;28;20025;-66
2022/09/12 02:05:35;;;;;;;19.80;14.57;;;16.60;77.70;;;;;;5077329;28;20107;-67
2022/09/12 02:08:01;;;;;;;21.73;14.82;;;16.70;77.70;;;;;;5077194;28;20058;-67
2022/09/12 02:10:35;;;;;;;19.80;15.45;;;16.60;77.70;;;;;;5092161;28;20031;-68
2022/09/12 02:13:42;;;;;;;21.27;15.05;;;16.70;77.70;;;;;;5094158;28;20048;-67
2022/09/12 02:16:26;;;;;;;22.38;15.95;;;16.70;77.70;;;;;;4994033;28;20060;-67
2022/09/12 02:18:56;;;;;;;20.67;15.77;;;16.60;77.70;;;;;;4977151;28;20454;-66
2022/09/12 02:21:24;;;;;;;21.70;15.70;;;16.60;77.80;;;;;;4960140;28;20387;-67
2022/09/12 02:23:56;;;;;;;19.90;15.82;;;16.60;77.80;;;;;;4976770;28;20507;-68
2022/09/12 02:26:31;;;;;;;22.77;16.75;;;16.60;77.80;;;;;;4992342;28;20035;-68
2022/09/12 02:28:57;;;;;;;22.05;17.15;;;16.50;77.70;;;;;;4993512;28;20039;-68
2022/09/12 02:31:46;;;;;;;22.63;17.67;;;16.60;77.80;;;;;;4992552;28;20043;-68
2022/09/12 02:34:14;;;;;;;21.80;16.55;;;16.60;77.70;;;;;;4991977;28;20070;-68
2022/09/12 02:37:01;;;;;;;21.75;16.15;;;16.50;77.70;;;;;;4976716;28;20124;-68
2022/09/12 02:39:27;;;;;;;21.33;15.98;;;16.60;77.60;;;;;;4991603;28;20114;-67
2022/09/12 02:41:59;;;;;;;23.67;17.00;;;16.50;77.70;;;;;;4992883;28;20125;-67
2022/09/12 02:44:28;;;;;;;22.83;17.13;;;16.50;77.70;;;;;;4991795;28;20054;-67
2022/09/12 02:47:00;;;;;;;22.13;16.70;;;16.50;77.70;;;;;;4977219;28;20042;-67
2022/09/12 02:49:25;;;;;;;23.73;16.77;;;16.50;77.70;;;;;;5015996;28;20041;-67
2022/09/12 02:51:51;;;;;;;22.80;17.05;;;16.50;77.70;;;;;;5074238;28;20097;-68
2022/09/12 02:54:18;;;;;;;24.92;18.85;;;16.50;77.80;;;;;;5073873;28;20024;-67
2022/09/12 02:56:44;;;;;;;22.35;17.05;;;16.50;77.80;;;;;;5094466;28;20429;-67
2022/09/12 02:59:17;;;;;;;23.33;18.20;;;16.40;77.80;;;;;;5093623;28;20424;-67
2022/09/12 03:02:10;;;;;;;23.80;18.55;;;16.50;77.80;;;;;;5092117;28;20056;-68
2022/09/12 03:05:02;;;;;;;24.05;19.20;;;16.50;77.80;;;;;;5083608;28;20073;-67
2022/09/12 03:07:49;;;;;;;22.67;17.15;;;16.40;77.70;;;;;;5076663;28;20016;-67
2022/09/12 03:10:31;;;;;;;24.10;17.15;;;16.40;77.70;;;;;;5082869;28;20017;-67
2022/09/12 03:13:15;;;;;;;22.20;17.70;;;16.40;77.80;;;;;;5093165;28;20036;-68
2022/09/12 03:16:03;;;;;;;23.92;17.88;;;16.40;77.90;;;;;;5076355;28;20054;-67
2022/09/12 03:19:02;;;;;;;24.60;17.75;;;16.40;77.90;;;;;;5072801;28;20048;-67
2022/09/12 03:21:59;;;;;;;22.60;17.77;;;16.40;77.90;;;;;;5090060;28;20052;-67
2022/09/12 03:24:37;;;;;;;23.20;17.13;;;16.30;77.90;;;;;;5064072;28;20132;-67
2022/09/12 03:27:15;;;;;;;23.02;17.83;;;16.30;77.90;;;;;;5079771;28;20021;-67
2022/09/12 03:29:45;;;;;;;24.40;19.05;;;16.30;77.90;;;;;;5072740;28;20365;-67
2022/09/12 03:32:10;;;;;;;23.17;18.48;;;16.30;78.00;;;;;;5091948;28;20046;-67
2022/09/12 03:34:36;;;;;;;26.83;19.02;;;16.30;78.00;;;;;;5076245;28;20119;-66
2022/09/12 03:37:02;;;;;;;24.00;17.98;;;16.30;78.00;;;;;;5072492;28;20020;-66
2022/09/12 03:39:28;;;;;;;24.45;18.55;;;16.30;78.00;;;;;;5096195;28;20132;-68
2022/09/12 03:41:54;;;;;;;25.50;19.15;;;16.30;78.00;;;;;;5078303;28;20028;-67
2022/09/12 03:44:20;;;;;;;26.38;18.08;;;16.30;78.00;;;;;;5078698;28;20074;-67
2022/09/12 03:46:46;;;;;;;24.33;19.45;;;16.20;78.00;;;;;;5078704;28;20465;-68
2022/09/12 03:49:12;;;;;;;24.75;19.10;;;16.30;78.10;;;;;;5092892;28;20023;-67
2022/09/12 03:51:38;;;;;;;24.77;18.27;;;16.30;78.10;;;;;;5070542;28;20036;-67
2022/09/12 03:54:04;;;;;;;26.60;18.60;;;16.30;78.10;;;;;;5094499;28;20024;-67
2022/09/12 03:56:30;;;;;;;27.05;19.13;;;16.30;78.10;;;;;;5097969;28;20046;-67
2022/09/12 03:58:56;;;;;;;27.05;19.23;;;16.30;78.20;;;;;;5077589;28;20024;-67
2022/09/12 04:01:22;;;;;;;22.63;17.90;;;16.20;78.10;;;;;;5097373;28;20055;-67
2022/09/12 04:03:50;;;;;;;24.75;18.23;;;16.20;78.20;;;;;;5096478;28;20059;-67
2022/09/12 04:06:18;;;;;;;25.52;18.83;;;16.20;78.20;;;;;;5097494;28;20036;-67
2022/09/12 04:08:49;;;;;;;23.95;18.25;;;16.20;78.20;;;;;;5076140;28;20368;-67
2022/09/12 04:11:16;;;;;;;24.13;18.60;;;16.20;78.20;;;;;;5088133;28;20452;-67
2022/09/12 04:13:43;;;;;;;23.55;17.63;;;16.20;78.20;;;;;;5092573;28;20040;-67
2022/09/12 04:16:09;;;;;;;24.35;18.83;;;16.20;78.20;;;;;;5074299;28;20693;-68
2022/09/12 04:18:35;;;;;;;26.17;18.65;;;16.20;78.20;;;;;;5090604;28;20087;-67
2022/09/12 04:21:06;;;;;;;24.48;18.17;;;16.20;78.20;;;;;;5072052;28;20049;-67
2022/09/12 04:23:31;;;;;;;25.58;18.05;;;16.20;78.30;;;;;;5094939;28;20081;-67
2022/09/12 04:25:59;;;;;;;26.33;17.98;;;16.20;78.30;;;;;;5096908;28;20032;-67
2022/09/12 04:28:25;;;;;;;25.75;18.58;;;16.20;79.00;;;;;;5096159;28;20148;-67
2022/09/12 04:30:51;;;;;;;23.60;18.10;;;16.20;78.30;;;;;;5077304;28;20057;-67
2022/09/12 04:33:17;;;;;;;25.88;18.27;;;16.20;78.40;;;;;;5078289;28;20036;-67
2022/09/12 04:35:44;;;;;;;26.13;19.45;;;16.20;78.40;;;;;;5093601;28;20032;-67
2022/09/12 04:38:10;;;;;;;24.55;17.98;;;16.30;78.50;;;;;;5066944;28;20041;-67
2022/09/12 04:40:36;;;;;;;28.00;18.55;;;16.30;78.50;;;;;;5087476;28;20071;-67
2022/09/12 04:43:03;;;;;;;25.10;17.73;;;16.20;78.40;;;;;;5064718;28;20429;-67
2022/09/12 04:45:28;;;;;;;27.70;18.95;;;16.20;78.50;;;;;;5070528;28;20449;-67
2022/09/12 04:47:54;;;;;;;24.23;18.63;;;16.20;78.60;;;;;;5086568;28;20027;-67
2022/09/12 04:50:20;;;;;;;25.30;18.63;;;16.20;78.60;;;;;;5069959;28;20036;-67
2022/09/12 04:52:50;;;;;;;25.90;18.98;;;16.20;78.70;;;;;;5089400;28;20032;-68
2022/09/12 04:55:16;;;;;;;27.47;19.03;;;16.20;78.70;;;;;;5067281;28;20020;-67
2022/09/12 04:57:42;;;;;;;24.83;17.35;;;16.20;78.70;;;;;;5091545;28;20089;-67
2022/09/12 05:00:12;;;;;;;26.50;18.08;;;16.30;78.80;;;;;;5087993;28;20067;-67
2022/09/12 05:02:38;;;;;;;27.45;19.13;;;16.20;78.80;;;;;;5095858;28;20039;-67
2022/09/12 05:05:04;;;;;;;23.35;17.50;;;16.20;78.80;;;;;;5075527;28;20369;-67
2022/09/12 05:07:30;;;;;;;25.15;19.02;;;16.20;78.80;;;;;;5096596;28;20141;-66
2022/09/12 05:09:57;;;;;;;27.02;19.08;;;16.30;78.90;;;;;;5074415;28;20032;-67
2022/09/12 05:12:23;;;;;;;27.10;18.60;;;16.30;78.90;;;;;;5090795;28;20356;-67
2022/09/12 05:14:48;;;;;;;25.55;18.67;;;16.20;78.90;;;;;;5082557;28;20086;-67
2022/09/12 05:17:14;;;;;;;25.17;17.98;;;16.20;79.00;;;;;;5075893;28;20445;-67
2022/09/12 05:19:40;;;;;;;25.48;18.83;;;16.30;79.10;;;;;;5094746;28;20115;-67
2022/09/12 05:22:05;;;;;;;28.10;19.20;;;16.30;79.10;;;;;;5093803;28;20361;-67
2022/09/12 05:24:31;;;;;;;26.88;18.80;;;16.30;79.10;;;;;;5092628;28;20028;-67
2022/09/12 05:26:57;;;;;;;24.88;18.60;;;16.30;79.10;;;;;;5094394;28;20032;-68
2022/09/12 05:29:24;;;;;;;28.70;19.55;;;16.30;79.20;;;;;;5074842;28;20073;-68
2022/09/12 05:31:51;;;;;;;27.58;19.58;;;16.30;79.20;;;;;;5093647;28;20099;-67
2022/09/12 05:34:18;;;;;;;26.80;19.42;;;16.30;79.20;;;;;;5091249;28;20379;-67
2022/09/12 05:36:43;;;;;;;26.92;19.35;;;16.40;79.20;;;;;;5092714;28;20102;-67
2022/09/12 05:39:09;;;;;;;27.70;20.00;;;16.40;79.20;;;;;;5094735;28;20494;-67
2022/09/12 05:41:35;;;;;;;30.52;19.63;;;16.40;79.20;;;;;;5061175;28;20115;-68
2022/09/12 05:44:04;;;;;;;30.40;19.40;;;16.40;79.30;;;;;;5074551;28;20107;-68
2022/09/12 05:46:50;;;;;;;27.35;18.02;;;16.40;79.40;;;;;;5091270;28;20098;-67
2022/09/12 05:49:15;;;;;;;29.85;20.75;;;16.40;79.50;;;;;;5070402;28;20024;-68
2022/09/12 05:51:44;;;;;;;27.13;19.40;;;16.50;79.60;;;;;;5053644;28;20111;-69
2022/09/12 05:54:12;;;;;;;28.92;20.73;;;16.40;79.60;;;;;;5077964;28;20079;-68
2022/09/12 05:56:42;;;;;;;28.55;18.63;;;16.50;79.60;;;;;;5070460;28;20035;-68
2022/09/12 05:59:12;;;;;;;27.15;19.58;;;16.50;79.70;;;;;;5079514;28;20020;-68
2022/09/12 06:01:38;;;;;;;31.15;19.55;;;16.50;79.70;;;;;;5082601;28;20020;-67
2022/09/12 06:04:06;;;;;;;30.73;20.63;;;16.60;79.70;;;;;;5067052;28;20032;-67
2022/09/12 06:06:35;;;;;;;30.30;19.92;;;16.60;79.70;;;;;;5066035;28;20434;-67
2022/09/12 06:09:02;;;;;;;27.65;19.75;;;16.60;79.70;;;;;;5084020;28;20449;-67
2022/09/12 06:11:32;;;;;;;31.40;20.58;;;16.70;79.70;;;;;;5065449;28;20173;-67
2022/09/12 06:13:58;;;;;;;31.83;20.85;;;16.70;79.70;;;;;;5079888;28;20032;-67
2022/09/12 06:16:27;;;;;;;29.65;20.58;;;16.70;79.70;;;;;;5082106;28;20039;-67
2022/09/12 06:18:54;;;;;;;30.15;20.58;;;16.70;80.30;;;;;;5070746;28;20468;-67
2022/09/12 06:21:21;;;;;;;31.50;21.20;;;16.80;79.80;;;;;;5081510;28;20072;-67
2022/09/12 06:23:47;;;;;;;29.90;20.45;;;16.80;79.70;;;;;;5088521;28;20020;-68
2022/09/12 06:26:15;;;;;;;29.88;20.48;;;16.90;79.80;;;;;;5063043;28;20031;-68
2022/09/12 06:28:43;;;;;;;32.13;21.20;;;16.90;79.80;;;;;;5086572;28;20028;-68
2022/09/12 06:31:15;;;;;;;30.33;20.95;;;16.90;79.70;;;;;;5081687;28;20368;-68
2022/09/12 06:33:46;;;;;;;34.50;21.35;;;16.90;79.80;;;;;;5071475;28;20038;-68
2022/09/12 06:36:13;;;;;;;;;;;16.90;79.80;;;;;;5084238;28;20426;-68
2022/09/12 06:38:39;;;;;;;27.77;19.48;;;17.00;79.70;;;;;;5075985;28;19916;-67
2022/09/12 06:41:07;;;;;;;30.55;19.98;;;16.90;79.70;;;;;;5089854;28;20073;-67
2022/09/12 06:43:33;;;;;;;29.80;20.98;;;17.00;79.80;;;;;;5070323;28;20032;-67
2022/09/12 06:46:00;;;;;;;33.72;21.83;;;17.00;79.90;;;;;;5068936;28;20024;-68
2022/09/12 06:48:26;;;;;;;32.88;22.35;;;17.00;79.90;;;;;;5075970;28;20112;-68
2022/09/12 06:50:57;;;;;;;31.48;21.77;;;17.00;79.90;;;;;;5078987;28;20515;-68
2022/09/12 06:53:23;;;;;;;33.80;23.13;;;17.00;80.00;;;;;;5066742;28;20028;-68
2022/09/12 06:56:00;;;;;;;35.50;22.98;;;17.00;80.00;;;;;;5062348;28;20036;-69
2022/09/12 06:58:27;;;;;;;36.17;22.52;;;17.00;80.10;;;;;;5061303;28;20453;-68
2022/09/12 07:01:16;;;;;;;34.60;23.30;;;17.00;80.10;;;;;;5060815;28;20056;-68
2022/09/12 07:03:45;;;;;;;35.05;21.77;;;17.00;80.10;;;;;;5066936;28;20074;-68
2022/09/12 07:06:13;;;;;;;50.70;24.00;;;17.00;80.20;;;;;;5072420;28;20017;-68
2022/09/12 07:08:39;;;;;;;33.30;21.48;;;17.10;80.20;;;;;;5080337;28;20061;-69
2022/09/12 07:11:15;;;;;;;36.28;24.73;;;17.20;80.20;;;;;;5085439;28;20024;-68
2022/09/12 07:13:43;;;;;;;38.58;23.80;;;17.30;80.10;;;;;;5089948;28;20028;-69
2022/09/12 07:16:09;;;;;;;36.45;23.25;;;17.50;79.80;;;;;;5069831;28;20433;-69
2022/09/12 07:18:37;;;;;;;41.05;25.75;;;17.70;79.50;;;;;;5066846;28;20052;-69
2022/09/12 07:21:04;;;;;;;35.60;24.30;;;17.80;79.20;;;;;;5072236;28;20157;-68
2022/09/12 07:23:31;;;;;;;36.85;25.38;;;18.10;78.90;;;;;;5079324;28;20365;-68
2022/09/12 07:25:58;;;;;;;40.60;25.42;;;18.20;78.40;;;;;;5080609;28;20356;-69
2022/09/12 07:28:25;;;;;;;39.00;24.65;;;18.30;78.20;;;;;;5098177;28;20024;-68
2022/09/12 07:30:52;;;;;;;40.05;24.80;;;18.30;78.20;;;;;;5070893;28;20439;-68
2022/09/12 07:33:27;;;;;;;40.10;25.40;;;18.20;78.00;;;;;;5055942;28;20121;-68
2022/09/12 07:35:53;;;;;;;42.38;24.88;;;18.20;78.00;;;;;;5098009;28;20028;-68
2022/09/12 07:38:20;;;;;;;39.15;25.95;;;18.20;78.00;;;;;;5070666;28;20051;-68
2022/09/12 07:40:46;;;;;;;39.15;24.77;;;18.20;78.00;;;;;;5092762;28;20028;-68
2022/09/12 07:43:12;;;;;;;35.65;24.85;;;18.30;77.80;;;;;;5071157;28;20028;-68
2022/09/12 07:45:40;;;;;;;36.70;22.77;;;18.50;77.50;;;;;;5091380;28;20020;-68
2022/09/12 07:48:07;;;;;;;40.25;25.15;;;18.70;77.10;;;;;;5085106;28;20032;-68
2022/09/12 07:50:32;;;;;;;35.45;25.20;;;18.90;76.50;;;;;;5079671;28;20162;-68
2022/09/12 07:52:58;;;;;;;37.08;24.73;;;19.10;76.00;;;;;;5076941;28;20124;-68
2022/09/12 07:55:24;;;;;;;37.70;25.67;;;19.40;75.60;;;;;;5076295;28;20192;-68
2022/09/12 07:57:53;;;;;;;41.00;26.40;;;19.60;75.00;;;;;;5067386;28;20047;-69
2022/09/12 08:00:19;;;;;;;34.13;23.35;;;19.60;74.50;;;;;;5083499;28;20467;-68
2022/09/12 08:02:49;;;;;;;35.53;24.50;;;19.60;74.30;;;;;;5067169;28;20025;-68
2022/09/12 08:05:14;;;;;;;35.33;23.92;;;19.60;74.40;;;;;;5064138;28;20028;-68
2022/09/12 08:07:40;;;;;;;37.35;26.23;;;19.40;74.50;;;;;;5083384;28;20032;-69
2022/09/12 08:10:06;;;;;;;36.45;24.80;;;19.40;74.60;;;;;;5081520;28;20028;-69
2022/09/12 08:12:33;;;;;;;35.40;24.95;;;19.40;74.90;;;;;;5091799;28;20093;-68
2022/09/12 08:14:59;;;;;;;34.83;24.15;;;19.40;74.90;;;;;;5096034;28;20047;-69
2022/09/12 08:17:25;;;;;;;35.80;25.38;;;19.60;74.60;;;;;;5096869;28;20040;-69
2022/09/12 08:19:51;;;;;;;34.15;24.63;;;20.00;74.80;;;;;;5097116;28;20031;-69
2022/09/12 08:22:20;;;;;;;34.05;23.33;;;20.30;73.40;;;;;;5095288;28;20069;-68
2022/09/12 08:24:49;;;;;;;33.03;23.48;;;20.40;72.70;;;;;;5077523;28;20024;-68
2022/09/12 08:27:15;;;;;;;33.22;23.98;;;20.60;72.10;;;;;;5096696;28;20103;-68
2022/09/12 08:29:41;;;;;;;33.10;24.02;;;20.80;71.50;;;;;;5078997;28;20111;-68
2022/09/12 08:32:06;;;;;;;31.95;22.60;;;21.00;71.10;;;;;;5078853;28;20107;-69
2022/09/12 08:34:32;;;;;;;32.97;22.50;;;21.10;70.70;;;;;;5058944;28;20094;-68
2022/09/12 08:36:58;;;;;;;31.95;22.75;;;21.20;70.40;;;;;;5095114;28;20089;-68
2022/09/12 08:39:24;;;;;;;31.90;22.30;;;21.30;70.10;;;;;;5071581;28;20070;-68
2022/09/12 08:42:02;;;;;;;29.02;20.90;;;21.40;69.90;;;;;;5091620;28;20097;-68
2022/09/12 08:44:53;;;;;;;29.75;20.85;;;21.50;69.50;;;;;;5097019;28;20050;-68
2022/09/12 08:47:25;;;;;;;;;;;21.70;69.30;;;;;;5062410;28;20063;-69
2022/09/12 08:50:10;;;;;;;28.15;19.33;;;21.80;69.20;;;;;;5078392;28;20060;-69
2022/09/12 08:52:54;;;;;;;28.67;20.77;;;22.00;68.70;;;;;;5083391;28;20027;-68
2022/09/12 08:55:35;;;;;;;28.38;19.92;;;22.10;68.40;;;;;;5093497;28;20044;-69
2022/09/12 08:58:19;;;;;;;27.55;20.05;;;22.30;67.80;;;;;;5085707;28;20039;-68
2022/09/12 09:00:58;;;;;;;27.25;20.52;;;22.40;67.60;;;;;;5083994;28;20044;-69
2022/09/12 09:04:19;;;;;;;27.20;20.77;;;22.60;67.30;;;;;;5096546;28;20088;-68
2022/09/12 09:07:13;;;;;;;24.83;17.90;;;22.80;66.90;;;;;;5040931;28;20058;-70
2022/09/12 09:09:48;;;;;;;26.63;17.02;;;22.90;66.60;;;;;;5096039;28;20028;-68
2022/09/12 09:12:56;;;;;;;24.95;17.40;;;23.00;66.20;;;;;;5076793;28;20034;-68
2022/09/12 09:15:34;;;;;;;25.20;17.10;;;23.20;65.90;;;;;;5077085;28;20044;-68
2022/09/12 09:18:22;;;;;;;24.38;17.20;;;23.40;65.50;;;;;;5077827;28;20067;-68
2022/09/12 09:20:56;;;;;;;24.17;16.52;;;23.40;64.90;;;;;;5095395;28;20023;-68
2022/09/12 09:23:30;;;;;;;23.60;17.42;;;23.50;64.90;;;;;;5095764;28;20032;-68
2022/09/12 09:26:12;;;;;;;25.10;18.60;;;23.60;64.50;;;;;;5095654;28;20095;-69
2022/09/12 09:28:51;;;;;;;22.20;15.73;;;23.60;64.20;;;;;;5094076;28;20027;-68
2022/09/12 09:31:19;;;;;;;24.40;16.00;;;23.70;63.90;;;;;;5072156;28;20373;-68
2022/09/12 09:33:48;;;;;;;20.02;14.82;;;23.70;63.80;;;;;;5095577;28;20044;-68
2022/09/12 09:36:21;;;;;;;19.48;14.45;;;23.90;63.80;;;;;;5095203;28;20506;-69
2022/09/12 09:39:11;;;;;;;19.77;13.63;;;23.90;63.60;;;;;;5077858;28;20135;-68
2022/09/12 09:42:06;;;;;;;17.83;13.23;;;24.00;63.20;;;;;;5083908;28;20089;-68
2022/09/12 09:44:32;;;;;;;18.38;13.52;;;24.20;62.90;;;;;;5095252;28;20035;-68
2022/09/12 09:46:59;;;;;;;18.08;13.63;;;24.30;62.80;;;;;;5077745;28;20028;-68
2022/09/12 09:49:29;;;;;;;17.85;12.70;;;24.30;62.30;;;;;;5091469;28;20099;-68
2022/09/12 09:51:56;;;;;;;23.25;14.95;;;24.40;62.00;;;;;;5094349;28;20028;-68
2022/09/12 09:54:24;;;;;;;19.15;13.10;;;24.40;61.70;;;;;;5095126;28;20103;-68
2022/09/12 09:56:50;;;;;;;18.08;12.35;;;24.50;61.90;;;;;;5094821;28;20172;-68
2022/09/12 09:59:18;;;;;;;16.95;12.80;;;24.50;61.70;;;;;;5076924;28;20034;-69
2022/09/12 10:01:45;;;;;;;15.50;10.30;;;24.60;61.50;;;;;;5095089;28;20031;-69
2022/09/12 10:04:22;;;;;;;14.07;10.40;;;24.70;61.20;;;;;;5075859;28;20028;-68
2022/09/12 10:06:51;;;;;;;14.40;10.43;;;24.80;60.80;;;;;;5094652;28;20089;-69
2022/09/12 10:09:20;;;;;;;16.52;11.25;;;24.90;60.60;;;;;;5076782;28;20510;-69
2022/09/12 10:11:47;;;;;;;14.07;9.38;;;24.90;60.30;;;;;;5094866;28;20111;-70
2022/09/12 10:14:38;;;;;;;14.57;9.73;;;25.00;60.20;;;;;;5095102;28;20024;-70
2022/09/12 10:17:25;;;;;;;14.05;9.15;;;25.10;60.00;;;;;;5075032;28;20024;-69
2022/09/12 10:19:52;;;;;;;14.70;9.50;;;25.10;60.40;;;;;;5086045;28;20060;-69
2022/09/12 10:22:21;;;;;;;15.43;8.95;;;25.30;59.90;;;;;;5093765;28;20051;-69
2022/09/12 10:24:51;;;;;;;13.40;8.73;;;25.30;59.60;;;;;;5077251;28;20027;-69
2022/09/12 10:27:24;;;;;;;13.20;7.70;;;25.30;59.20;;;;;;5093633;28;20085;-69
2022/09/12 10:30:00;;;;;;;12.13;7.97;;;25.40;59.10;;;;;;5075083;28;20040;-69
2022/09/12 10:32:35;;;;;;;9.48;6.30;;;25.50;58.60;;;;;;5072842;28;20051;-69
2022/09/12 10:35:22;;;;;;;9.52;6.57;;;25.50;58.60;;;;;;5076544;28;20048;-69
2022/09/12 10:38:01;;;;;;;9.73;5.95;;;25.50;57.90;;;;;;5065491;28;20020;-69
2022/09/12 10:40:31;;;;;;;9.90;5.97;;;25.50;57.80;;;;;;5070705;28;20111;-69
2022/09/12 10:43:06;;;;;;;8.90;5.57;;;25.60;57.60;;;;;;5076116;28;20028;-69
2022/09/12 10:45:36;;;;;;;10.55;5.07;;;25.60;57.20;;;;;;5094691;28;20060;-69
2022/09/12 10:48:20;;;;;;;9.20;5.57;;;25.70;56.60;;;;;;5072374;28;20028;-69
2022/09/12 10:50:46;;;;;;;8.35;5.00;;;25.70;56.30;;;;;;5075335;28;20051;-69
2022/09/12 10:53:17;;;;;;;8.88;5.53;;;25.70;56.40;;;;;;5064909;28;20105;-69
2022/09/12 10:56:05;;;;;;;8.40;5.13;;;25.80;56.10;;;;;;5094472;28;20111;-69
2022/09/12 10:59:12;;;;;;;10.00;4.72;;;25.90;55.90;;;;;;5086725;28;20162;-69
2022/09/12 11:01:41;;;;;;;12.52;5.40;;;26.00;55.80;;;;;;5078736;28;20063;-70
2022/09/12 11:04:27;;;;;;;6.97;4.40;;;26.00;55.70;;;;;;5087981;28;20047;-69
2022/09/12 11:07:25;;;;;;;8.85;5.28;;;26.00;55.50;;;;;;5085863;28;20119;-68
2022/09/12 11:10:08;;;;;;;8.70;5.47;;;26.10;55.10;;;;;;5073545;28;20165;-69
2022/09/12 11:13:16;;;;;;;9.55;5.32;;;26.00;54.90;;;;;;5089574;28;20114;-68
2022/09/12 11:15:51;;;;;;;9.32;4.90;;;26.00;54.80;;;;;;5089859;28;20448;-68
2022/09/12 11:18:50;;;;;;;8.55;4.68;;;26.00;54.80;;;;;;5068352;28;20040;-69
2022/09/12 11:21:29;;;;;;;8.45;4.88;;;26.00;54.40;;;;;;5054741;28;20032;-69
2022/09/12 11:24:31;;;;;;;8.73;4.90;;;26.10;54.60;;;;;;5086679;28;20131;-69
2022/09/12 11:27:00;;;;;;;8.50;4.47;;;26.10;54.90;;;;;;5071466;28;20123;-69
2022/09/12 11:29:45;;;;;;;8.27;4.80;;;26.10;54.20;;;;;;5088460;28;20468;-69
2022/09/12 11:32:39;;;;;;;7.90;4.50;;;26.20;53.80;;;;;;5090283;28;20024;-69
2022/09/12 11:35:14;;;;;;;7.97;4.90;;;26.10;53.70;;;;;;5073918;28;20035;-69
2022/09/12 11:37:53;;;;;;;8.88;4.70;;;26.20;53.80;;;;;;5074090;28;20456;-69
2022/09/12 11:40:21;;;;;;;8.00;4.47;;;26.10;53.70;;;;;;5084314;28;20032;-69
2022/09/12 11:42:50;;;;;;;6.90;3.95;;;26.20;53.70;;;;;;5084018;28;20024;-68
2022/09/12 11:45:22;;;;;;;7.85;3.80;;;26.20;53.50;;;;;;5085929;28;20087;-69
2022/09/12 11:47:53;;;;;;;7.35;3.70;;;26.10;53.30;;;;;;5075554;28;20028;-68
2022/09/12 11:50:30;;;;;;;8.77;4.22;;;26.20;53.20;;;;;;5084606;28;20043;-68
2022/09/12 11:53:23;;;;;;;6.70;3.83;;;26.20;53.00;;;;;;5044101;28;20472;-69
2022/09/12 11:55:58;;;;;;;7.38;3.80;;;26.20;53.00;;;;;;5086136;28;20455;-68
2022/09/12 11:58:27;;;;;;;7.28;4.15;;;26.20;53.00;;;;;;5075546;28;20032;-69
2022/09/12 12:01:01;;;;;;;7.18;3.78;;;26.20;52.90;;;;;;5091960;28;20039;-69
2022/09/12 12:03:35;;;;;;;7.20;3.92;;;26.10;52.90;;;;;;5095545;28;20425;-68
2022/09/12 12:06:10;;;;;;;7.70;4.65;;;26.10;52.90;;;;;;5095342;28;20089;-68
2022/09/12 12:08:41;;;;;;;8.45;4.25;;;26.00;52.70;;;;;;5092264;28;20164;-69
2022/09/12 12:11:09;;;;;;;8.75;4.78;;;26.00;52.60;;;;;;5068963;28;20460;-69
2022/09/12 12:13:45;;;;;;;8.82;4.78;;;25.90;52.70;;;;;;5077909;28;20419;-68
2022/09/12 12:16:13;;;;;;;9.43;4.75;;;25.80;52.90;;;;;;5087798;28;20043;-68
2022/09/12 12:18:39;;;;;;;8.10;4.88;;;25.70;53.10;;;;;;5085745;28;20078;-68
2022/09/12 12:21:27;;;;;;;7.45;4.43;;;25.60;53.20;;;;;;5081335;28;20104;-68
2022/09/12 12:24:07;;;;;;;10.27;4.80;;;25.60;53.10;;;;;;5083761;28;20028;-68
2022/09/12 12:26:39;;;;;;;7.10;4.15;;;25.50;53.00;;;;;;5055769;28;20035;-69
2022/09/12 12:29:17;;;;;;;7.68;4.03;;;25.50;53.30;;;;;;5080377;28;20025;-69
2022/09/12 12:31:58;;;;;;;6.63;3.67;;;25.40;53.00;;;;;;5090824;28;20036;-69
2022/09/12 12:34:33;;;;;;;13.65;4.43;;;25.40;53.40;;;;;;5062223;28;20039;-69
2022/09/12 12:37:19;;;;;;;5.95;3.67;;;25.30;53.50;;;;;;5087770;28;20029;-69
2022/09/12 12:39:52;;;;;;;7.80;4.43;;;25.30;53.20;;;;;;5071003;28;20123;-69
2022/09/12 12:42:33;;;;;;;7.32;4.20;;;25.10;53.30;;;;;;5068954;28;20122;-69
2022/09/12 12:45:25;;;;;;;8.40;4.57;;;25.10;53.40;;;;;;5066262;28;20024;-70
2022/09/12 12:48:16;;;;;;;8.30;4.43;;;25.10;53.40;;;;;;5077873;28;20082;-70
2022/09/12 12:50:42;;;;;;;8.52;5.18;;;25.00;53.50;;;;;;5082444;28;20365;-68
2022/09/12 12:53:24;;;;;;;7.63;3.95;;;25.00;53.40;;;;;;5085681;28;20039;-68
2022/09/12 12:55:53;;;;;;;8.07;4.82;;;25.00;53.40;;;;;;5087341;28;20040;-67
2022/09/12 12:58:41;;;;;;;8.93;4.50;;;24.90;53.50;;;;;;5075442;28;20039;-67